Search for airport 
image banner adimage banner ad
image banner ad

EVPA - Ikshkile

Located in Ikshkile, Latvia

ICAO - EVPA, IATA -

Data provided by Airmate  

General information

Coordinates: N56°48'54" E24°31'40"
Elevation is 65 feet MSL.
Magnetic variation is 5° East
Rated:
View ratings: [VIEW]


View others Airports in Ogre District

Operational data

Open for public use
Current time UTC:
Current local time:
Weather at : EVRA - Riga ( 36 km )
METAR: EVRA 122350Z 20002KT 9999 1900 MIFG NSC 07/07 Q1021 NOSIG
TAF: TAF AMD EVRA 122246Z 1222/1321 VRB02KT CAVOK TEMPO 1222/1301 3000 MIFG BR BECMG 1301/1303 9999 BKN030 TEMPO 1303/1311 4000 -SHRA BKN030CB PROB40 TEMPO 1307/1310 TS TEMPO 1311/1315 SCT030CB
View NOTAMs / SUP AIP / TFR affecting this airport [VIEW]
Communications frequencies: [VIEW]

Runways:

RWY identifierQFULength (ft)Width (ft)SurfaceLDA (ft)
0885°196966GRASS
26265°196966GRASS

Airport contact information

Address: Ikshkile Latvia

Satellite view of EVPA